createdAt,value
2022-09-01T00:01:20.819Z,100548.96
2022-09-01T00:03:53.273Z,100545.91
2022-09-01T00:06:24.337Z,100552.86
2022-09-01T00:08:55.992Z,100552.20
2022-09-01T00:11:28.356Z,100549.77
2022-09-01T00:13:59.281Z,100541.70
2022-09-01T00:16:30.346Z,100537.09
2022-09-01T00:19:06.145Z,100532.27
2022-09-01T00:21:40.062Z,100534.52
2022-09-01T00:24:15.910Z,100529.84
2022-09-01T00:26:50.360Z,100529.73
2022-09-01T00:29:20.213Z,100533.33
2022-09-01T00:31:49.892Z,100539.20
2022-09-01T00:34:21.089Z,100541.79
2022-09-01T00:36:51.899Z,100539.75
2022-09-01T00:39:23.525Z,100537.89
2022-09-01T00:41:53.339Z,100537.77
2022-09-01T00:44:29.757Z,100534.31
2022-09-01T00:47:00.921Z,100536.05
2022-09-01T00:49:37.050Z,100540.66
2022-09-01T00:52:12.099Z,100538.35
2022-09-01T00:54:49.154Z,100539.00
2022-09-01T00:57:30.103Z,100535.54
2022-09-01T01:00:03.628Z,100536.52
2022-09-01T01:02:33.636Z,100533.73
2022-09-01T01:05:04.084Z,100532.58
2022-09-01T01:07:41.004Z,100533.94
2022-09-01T01:10:14.306Z,100531.73
2022-09-01T01:12:45.498Z,100529.94
2022-09-01T01:15:16.726Z,100532.23
2022-09-01T01:17:46.285Z,100527.79
2022-09-01T01:20:35.503Z,100527.80
2022-09-01T01:23:15.755Z,100522.83
2022-09-01T01:25:48.799Z,100517.41
2022-09-01T01:28:21.895Z,100520.58
2022-09-01T01:30:55.805Z,100520.75
2022-09-01T01:33:30.842Z,100523.00
2022-09-01T01:36:01.419Z,100518.92
2022-09-01T01:38:30.980Z,100517.08
2022-09-01T01:41:00.984Z,100509.77
2022-09-01T01:43:30.762Z,100510.95
2022-09-01T01:46:05.155Z,100511.63
2022-09-01T01:48:38.044Z,100510.36
2022-09-01T01:51:34.444Z,100510.63
2022-09-01T01:54:05.232Z,100514.36
2022-09-01T01:56:39.810Z,100514.09
2022-09-01T01:59:15.282Z,100512.06
2022-09-01T02:01:50.905Z,100513.23
2022-09-01T02:04:22.800Z,100508.42
2022-09-01T02:06:52.537Z,100513.02
2022-09-01T02:09:22.794Z,100509.33
2022-09-01T02:11:56.737Z,100512.80
2022-09-01T02:14:26.133Z,100516.09
2022-09-01T02:16:55.547Z,100522.61
2022-09-01T02:19:25.468Z,100518.99
2022-09-01T02:21:55.684Z,100521.41
2022-09-01T02:24:26.009Z,100524.67
2022-09-01T02:27:00.086Z,100520.20
2022-09-01T02:29:29.585Z,100519.56
2022-09-01T02:32:10.571Z,100518.28
2022-09-01T02:34:39.936Z,100513.80
2022-09-01T02:37:09.129Z,100515.20
2022-09-01T02:39:38.381Z,100512.03
2022-09-01T02:42:08.517Z,100504.79
2022-09-01T02:44:41.404Z,100509.63
2022-09-01T02:47:11.172Z,100506.34
2022-09-01T02:49:42.611Z,100503.49
2022-09-01T02:52:16.940Z,100501.14
2022-09-01T02:54:49.286Z,100499.75
2022-09-01T02:57:18.529Z,100501.14
2022-09-01T02:59:48.054Z,100503.98
2022-09-01T03:02:17.135Z,100508.17
2022-09-01T03:04:52.580Z,100504.57
2022-09-01T03:07:25.059Z,100506.58
2022-09-01T03:09:54.457Z,100508.93
2022-09-01T03:12:24.443Z,100504.27
2022-09-01T03:14:53.759Z,100502.50
2022-09-01T03:17:25.947Z,100509.67
2022-09-01T03:19:56.913Z,100508.92
2022-09-01T03:22:32.720Z,100511.11
2022-09-01T03:25:02.067Z,100512.98
2022-09-01T03:27:31.302Z,100512.73
2022-09-01T03:30:00.699Z,100508.31
2022-09-01T03:32:30.509Z,100509.60
2022-09-01T03:35:00.458Z,100510.91
2022-09-01T03:37:46.347Z,100508.40
2022-09-01T03:40:20.255Z,100509.05
2022-09-01T03:42:53.846Z,100512.88
2022-09-01T03:45:26.549Z,100512.23
2022-09-01T03:48:00.127Z,100513.58
2022-09-01T03:50:32.042Z,100512.61
2022-09-01T03:53:01.562Z,100512.17
2022-09-01T03:55:33.829Z,100517.14
2022-09-01T03:58:11.104Z,100516.19
2022-09-01T04:00:48.974Z,100516.90
2022-09-01T04:03:21.544Z,100516.39
2022-09-01T04:05:59.892Z,100517.66
2022-09-01T04:08:32.624Z,100517.86
2022-09-01T04:11:05.275Z,100520.09
2022-09-01T04:13:39.389Z,100521.39
2022-09-01T04:16:36.873Z,100517.34
2022-09-01T04:19:15.434Z,100512.07
2022-09-01T04:21:45.545Z,100512.74
2022-09-01T04:24:15.078Z,100513.80
2022-09-01T04:26:48.354Z,100513.28
2022-09-01T04:29:18.819Z,100510.92
2022-09-01T04:31:51.703Z,100511.19
2022-09-01T04:34:22.104Z,100508.02
2022-09-01T04:36:54.386Z,100513.40
2022-09-01T04:39:24.774Z,100510.08
2022-09-01T04:41:55.054Z,100515.27
2022-09-01T04:44:25.065Z,100513.29
2022-09-01T04:46:54.874Z,100514.47
2022-09-01T04:49:25.991Z,100521.90
2022-09-01T04:51:55.080Z,100520.72
2022-09-01T04:54:24.239Z,100524.98
2022-09-01T04:56:54.650Z,100528.98
2022-09-01T04:59:27.950Z,100529.82
2022-09-01T05:02:00.897Z,100532.61
2022-09-01T05:04:33.313Z,100528.63
2022-09-01T05:07:04.589Z,100528.66
2022-09-01T05:09:36.667Z,100532.72
2022-09-01T05:12:12.900Z,100531.95
2022-09-01T05:14:48.057Z,100537.71
2022-09-01T05:17:33.596Z,100540.85
2022-09-01T05:20:05.501Z,100543.82
2022-09-01T05:22:35.163Z,100541.40
2022-09-01T05:25:12.669Z,100538.10
2022-09-01T05:27:49.072Z,100538.66
2022-09-01T05:30:18.950Z,100539.65
2022-09-01T05:32:50.180Z,100537.52
2022-09-01T05:35:20.273Z,100531.23
2022-09-01T05:37:51.335Z,100527.05
2022-09-01T05:40:21.664Z,100525.64
2022-09-01T05:42:56.176Z,100526.56
2022-09-01T05:45:27.104Z,100528.45
2022-09-01T05:47:56.553Z,100535.36
2022-09-01T05:50:27.789Z,100532.89
2022-09-01T05:52:57.007Z,100534.80
2022-09-01T05:55:27.873Z,100536.51
2022-09-01T05:58:00.397Z,100532.80
2022-09-01T06:00:34.228Z,100534.52
2022-09-01T06:03:07.282Z,100537.70
2022-09-01T06:05:37.232Z,100540.89
2022-09-01T06:08:10.406Z,100547.11
2022-09-01T06:10:40.480Z,100550.91
2022-09-01T06:13:11.106Z,100558.50
2022-09-01T06:15:40.348Z,100559.48
2022-09-01T06:18:12.217Z,100556.77
2022-09-01T06:20:43.162Z,100560.52
2022-09-01T06:23:15.099Z,100563.34
2022-09-01T06:25:46.331Z,100564.05
2022-09-01T06:28:22.694Z,100564.34
2022-09-01T06:30:53.633Z,100569.33
2022-09-01T06:33:24.801Z,100574.37
2022-09-01T06:35:55.466Z,100571.64
2022-09-01T06:38:27.331Z,100572.67
2022-09-01T06:41:03.673Z,100573.68
2022-09-01T06:43:32.956Z,100576.94
2022-09-01T06:46:03.336Z,100578.58
2022-09-01T06:48:32.460Z,100577.83
2022-09-01T06:51:20.625Z,100588.15
2022-09-01T06:53:55.989Z,100587.83
2022-09-01T06:56:32.029Z,100587.91
2022-09-01T06:59:05.062Z,100585.13
2022-09-01T07:01:39.253Z,100590.21
2022-09-01T07:04:13.221Z,100586.27
2022-09-01T07:06:59.356Z,100591.58
2022-09-01T07:09:47.197Z,100594.11
2022-09-01T07:12:27.675Z,100597.25
2022-09-01T07:17:55.201Z,100599.39
2022-09-01T07:20:29.695Z,100600.60
2022-09-01T07:23:05.691Z,100598.52
2022-09-01T07:26:01.440Z,100602.45
2022-09-01T07:28:39.143Z,100597.06
2022-09-01T07:39:51.256Z,100593.78
2022-09-01T07:45:28.035Z,100588.89
2022-09-01T07:48:02.644Z,100589.94
2022-09-01T07:51:34.269Z,100592.37
2022-09-01T07:53:23.846Z,100593.92
2022-09-01T07:55:56.046Z,100594.90
2022-09-01T07:58:36.337Z,100592.55
2022-09-01T08:01:09.281Z,100590.11
2022-09-01T08:03:39.748Z,100587.38
2022-09-01T08:06:16.200Z,100586.80
2022-09-01T08:08:56.824Z,100582.06
2022-09-01T08:11:58.286Z,100580.02
2022-09-01T08:14:18.402Z,100574.06
2022-09-01T08:16:55.328Z,100576.15
2022-09-01T08:19:28.707Z,100574.36
2022-09-01T08:22:01.429Z,100572.73
2022-09-01T08:24:30.759Z,100574.98
2022-09-01T08:26:59.854Z,100570.20
2022-09-01T08:29:29.604Z,100570.61
2022-09-01T08:31:59.152Z,100573.35
2022-09-01T08:34:28.217Z,100576.37
2022-09-01T08:36:57.291Z,100580.77
2022-09-01T08:39:26.786Z,100576.14
2022-09-01T08:42:06.296Z,100575.32
2022-09-01T08:44:46.738Z,100567.54
2022-09-01T08:47:28.724Z,100560.14
2022-09-01T08:50:06.124Z,100559.90
2022-09-01T08:52:38.797Z,100555.20
2022-09-01T08:55:14.685Z,100553.73
2022-09-01T08:57:47.441Z,100553.11
2022-09-01T09:00:19.567Z,100544.81
2022-09-01T09:03:07.749Z,100548.33
2022-09-01T09:05:50.496Z,100549.80
2022-09-01T09:08:38.382Z,100549.23
2022-09-01T09:11:17.026Z,100542.05
2022-09-01T09:13:58.878Z,100536.39
2022-09-01T09:16:32.038Z,100540.89
2022-09-01T09:19:07.013Z,100537.88
2022-09-01T09:21:38.398Z,100533.75
2022-09-01T09:24:21.488Z,100533.75
2022-09-01T09:26:55.357Z,100535.77
2022-09-01T09:29:25.193Z,100536.36
2022-09-01T09:32:04.623Z,100530.55
2022-09-01T09:34:38.837Z,100535.70
2022-09-01T09:37:26.793Z,100534.38
2022-09-01T09:40:14.697Z,100531.80
2022-09-01T09:43:02.735Z,100536.03
2022-09-01T09:45:34.874Z,100534.60
2022-09-01T09:48:10.768Z,100535.67
2022-09-01T09:50:42.819Z,100534.23
2022-09-01T09:53:16.502Z,100529.27
2022-09-01T09:56:09.825Z,100531.92
2022-09-01T09:58:42.357Z,100529.20
2022-09-01T10:01:17.855Z,100533.48
2022-09-01T10:03:49.975Z,100526.94
2022-09-01T10:06:55.929Z,100526.77
2022-09-01T10:09:37.352Z,100517.35
2022-09-01T10:12:08.057Z,100515.80
2022-09-01T10:14:53.022Z,100510.40
2022-09-01T10:17:30.016Z,100519.73
2022-09-01T10:20:05.448Z,100518.02
2022-09-01T10:22:36.884Z,100517.95
2022-09-01T10:25:10.470Z,100516.83
2022-09-01T10:27:46.036Z,100510.95
2022-09-01T10:30:20.079Z,100506.32
2022-09-01T10:32:56.019Z,100509.95
2022-09-01T10:35:29.960Z,100506.64
2022-09-01T10:38:02.599Z,100505.77
2022-09-01T10:40:49.179Z,100504.31
2022-09-01T10:43:41.011Z,100502.04
2022-09-01T10:46:41.880Z,100502.36
2022-09-01T10:49:36.391Z,100497.55
2022-09-01T10:52:11.331Z,100501.24
2022-09-01T10:54:59.733Z,100487.72
2022-09-01T10:57:51.018Z,100486.15
2022-09-01T11:03:56.534Z,100481.95
2022-09-01T11:09:44.908Z,100473.80
2022-09-01T11:12:38.201Z,100473.67
2022-09-01T11:15:36.720Z,100471.17
2022-09-01T11:18:14.685Z,100471.83
2022-09-01T11:20:46.869Z,100468.55
2022-09-01T11:23:27.734Z,100466.86
2022-09-01T11:28:52.017Z,100464.57
2022-09-01T11:31:33.359Z,100466.97
2022-09-01T11:34:13.181Z,100468.88
2022-09-01T11:36:59.803Z,100465.03
2022-09-01T11:39:46.716Z,100454.88
2022-09-01T11:42:21.672Z,100453.48
2022-09-01T11:44:57.253Z,100458.64
2022-09-01T11:47:31.375Z,100454.99
2022-09-01T11:50:05.152Z,100452.77
2022-09-01T11:52:38.715Z,100453.51
2022-09-01T11:55:11.500Z,100448.59
2022-09-01T11:57:42.083Z,100450.64
2022-09-01T12:00:25.195Z,100448.84
2022-09-01T12:02:56.187Z,100444.70
2022-09-01T12:05:31.106Z,100438.45
2022-09-01T12:08:02.508Z,100440.20
2022-09-01T12:10:35.816Z,100438.59
2022-09-01T12:13:11.718Z,100439.22
2022-09-01T12:16:00.617Z,100436.03
2022-09-01T12:18:34.578Z,100427.50
2022-09-01T12:21:07.470Z,100428.80
2022-09-01T12:23:39.737Z,100430.77
2022-09-01T12:26:14.534Z,100423.50
2022-09-01T12:28:44.059Z,100422.17
2022-09-01T12:31:19.507Z,100427.11
2022-09-01T12:33:49.735Z,100426.48
2022-09-01T12:36:27.796Z,100429.23
2022-09-01T12:39:18.061Z,100423.69
2022-09-01T12:42:01.327Z,100429.82
2022-09-01T12:44:32.681Z,100424.79
2022-09-01T12:47:06.450Z,100424.77
2022-09-01T12:49:50.316Z,100422.61
2022-09-01T12:52:29.487Z,100421.08
2022-09-01T12:55:47.276Z,100421.00
2022-09-01T12:58:07.903Z,100426.99
2022-09-01T13:00:56.334Z,100425.73
2022-09-01T13:03:29.109Z,100423.31
2022-09-01T13:06:00.209Z,100426.01
2022-09-01T13:08:32.826Z,100420.29
2022-09-01T13:11:11.336Z,100420.02
2022-09-01T13:13:42.390Z,100423.00
2022-09-01T13:16:13.293Z,100413.90
2022-09-01T13:24:12.324Z,100413.48
2022-09-01T13:29:45.222Z,100416.75
2022-09-01T13:32:18.728Z,100414.46
2022-09-01T13:34:50.570Z,100411.14
2022-09-01T13:37:21.464Z,100403.79
2022-09-01T13:39:51.356Z,100401.61
2022-09-01T13:42:20.570Z,100404.33
2022-09-01T13:44:54.034Z,100404.59
2022-09-01T13:47:28.958Z,100397.55
2022-09-01T13:50:10.504Z,100397.53
2022-09-01T13:52:42.900Z,100403.23
2022-09-01T13:55:13.973Z,100404.94
2022-09-01T13:57:43.392Z,100398.19
2022-09-01T14:00:16.828Z,100397.35
2022-09-01T14:02:49.597Z,100398.91
2022-09-01T14:05:22.495Z,100396.33
2022-09-01T14:07:53.952Z,100392.94
2022-09-01T14:10:24.375Z,100394.52
2022-09-01T14:12:54.078Z,100397.31
2022-09-01T14:15:27.147Z,100385.57
2022-09-01T14:17:57.855Z,100386.67
2022-09-01T14:20:29.572Z,100390.11
2022-09-01T14:22:59.899Z,100390.14
2022-09-01T14:25:28.985Z,100393.13
2022-09-01T14:27:58.041Z,100393.63
2022-09-01T14:30:31.933Z,100393.60
2022-09-01T14:33:04.320Z,100394.55
2022-09-01T14:35:33.896Z,100392.98
2022-09-01T14:38:05.432Z,100392.05
2022-09-01T14:40:36.957Z,100390.48
2022-09-01T14:43:10.343Z,100390.62
2022-09-01T14:45:40.578Z,100401.69
2022-09-01T14:48:19.911Z,100400.73
2022-09-01T14:50:50.461Z,100404.71
2022-09-01T14:53:19.754Z,100404.40
2022-09-01T14:58:32.763Z,100397.41
2022-09-01T15:01:12.196Z,100393.45
2022-09-01T15:03:47.531Z,100397.61
2022-09-01T15:06:19.317Z,100397.66
2022-09-01T15:08:49.193Z,100399.19
2022-09-01T15:11:20.832Z,100397.76
2022-09-01T15:13:51.931Z,100395.84
2022-09-01T15:16:23.190Z,100399.01
2022-09-01T15:18:54.904Z,100395.39
2022-09-01T15:21:27.827Z,100391.34
2022-09-01T15:23:57.999Z,100399.41
2022-09-01T15:26:30.408Z,100399.48
2022-09-01T15:29:01.540Z,100400.49
2022-09-01T15:31:33.319Z,100402.71
2022-09-01T15:34:05.534Z,100404.71
2022-09-01T15:36:39.382Z,100406.14
2022-09-01T15:39:10.320Z,100412.46
2022-09-01T15:41:39.537Z,100410.44
2022-09-01T15:44:08.865Z,100411.42
2022-09-01T15:46:40.124Z,100417.14
2022-09-01T15:49:11.574Z,100406.55
2022-09-01T15:51:42.268Z,100409.96
2022-09-01T15:54:14.915Z,100405.21
2022-09-01T15:56:46.739Z,100404.36
2022-09-01T15:59:16.208Z,100399.59
2022-09-01T16:01:46.902Z,100398.96
2022-09-01T16:04:19.873Z,100399.98
2022-09-01T16:06:52.577Z,100403.15
2022-09-01T16:09:21.756Z,100402.33
2022-09-01T16:11:50.801Z,100401.77
2022-09-01T16:14:20.609Z,100401.40
2022-09-01T16:17:00.190Z,100395.81
2022-09-01T16:19:38.511Z,100391.53
2022-09-01T16:22:31.525Z,100395.11
2022-09-01T16:25:07.955Z,100400.27
2022-09-01T16:27:43.723Z,100398.33
2022-09-01T16:30:16.069Z,100393.33
2022-09-01T16:32:47.232Z,100401.36
2022-09-01T16:35:18.572Z,100395.11
2022-09-01T16:37:54.750Z,100395.35
2022-09-01T16:40:38.969Z,100393.45
2022-09-01T16:43:16.957Z,100389.64
2022-09-01T16:45:53.579Z,100394.30
2022-09-01T16:48:30.932Z,100391.59
2022-09-01T16:51:10.510Z,100397.22
2022-09-01T16:53:51.980Z,100405.73
2022-09-01T16:56:27.575Z,100401.35
2022-09-01T16:59:08.635Z,100398.68
2022-09-01T17:01:47.858Z,100403.73
2022-09-01T17:04:32.871Z,100406.27
2022-09-01T17:07:08.307Z,100409.92
2022-09-01T17:09:41.748Z,100410.97
2022-09-01T17:12:22.799Z,100410.67
2022-09-01T17:14:57.500Z,100415.95
2022-09-01T17:17:33.977Z,100422.45
2022-09-01T17:20:06.254Z,100424.08
2022-09-01T17:22:38.722Z,100425.72
2022-09-01T17:25:18.876Z,100429.23
2022-09-01T17:27:55.493Z,100427.70
2022-09-01T17:30:25.253Z,100427.86
2022-09-01T17:33:17.523Z,100431.48
2022-09-01T17:36:02.891Z,100429.39
2022-09-01T17:38:44.700Z,100430.23
2022-09-01T17:41:23.188Z,100434.67
2022-09-01T17:44:06.830Z,100441.58
2022-09-01T17:46:49.311Z,100439.56
2022-09-01T17:49:26.142Z,100446.70
2022-09-01T17:52:02.892Z,100445.94
2022-09-01T17:54:41.227Z,100449.00
2022-09-01T17:57:18.581Z,100455.23
2022-09-01T18:00:19.866Z,100459.39
2022-09-01T18:03:54.053Z,100458.50
2022-09-01T18:06:38.808Z,100461.78
2022-09-01T18:09:09.138Z,100465.80
2022-09-01T18:11:47.921Z,100469.04
2022-09-01T18:14:20.903Z,100469.58
2022-09-01T18:17:03.201Z,100471.96
2022-09-01T18:19:39.397Z,100473.23
2022-09-01T18:22:14.027Z,100474.03
2022-09-01T18:24:55.508Z,100472.85
2022-09-01T18:27:27.797Z,100471.17
2022-09-01T18:30:00.901Z,100475.04
2022-09-01T18:32:44.873Z,100473.29
2022-09-01T18:35:25.435Z,100475.79
2022-09-01T18:38:25.108Z,100475.06
2022-09-01T18:41:12.218Z,100480.45
2022-09-01T18:43:47.877Z,100485.17
2022-09-01T18:46:27.720Z,100488.93
2022-09-01T18:49:08.740Z,100491.52
2022-09-01T18:51:55.426Z,100491.27
2022-09-01T18:54:34.342Z,100491.63
2022-09-01T18:57:15.064Z,100491.98
2022-09-01T19:00:17.873Z,100496.67
2022-09-01T19:03:11.159Z,100501.93
2022-09-01T19:06:17.242Z,100503.29
2022-09-01T19:08:58.972Z,100505.21
2022-09-01T19:11:43.982Z,100505.73
2022-09-01T19:17:20.663Z,100511.07
2022-09-01T19:19:58.832Z,100508.53
2022-09-01T19:22:39.538Z,100512.31
2022-09-01T19:25:33.008Z,100510.75
2022-09-01T19:28:07.129Z,100514.75
2022-09-01T19:30:44.447Z,100518.63
2022-09-01T19:33:17.929Z,100522.67
2022-09-01T19:35:50.623Z,100527.53
2022-09-01T19:38:26.952Z,100525.19
2022-09-01T19:41:03.796Z,100529.09
2022-09-01T19:43:38.105Z,100536.05
2022-09-01T19:46:20.440Z,100539.40
2022-09-01T19:48:57.774Z,100545.88
2022-09-01T19:51:31.967Z,100551.41
2022-09-01T19:54:10.974Z,100557.42
2022-09-01T19:56:44.820Z,100553.80
2022-09-01T19:59:26.957Z,100556.21
2022-09-01T20:01:59.783Z,100560.73
2022-09-01T20:04:41.265Z,100557.66
2022-09-01T20:07:21.546Z,100562.96
2022-09-01T20:09:58.403Z,100563.90
2022-09-01T20:12:39.605Z,100570.13
2022-09-01T20:15:17.235Z,100575.14
2022-09-01T20:17:53.399Z,100576.89
2022-09-01T20:20:25.764Z,100578.76
2022-09-01T20:23:11.610Z,100579.97
2022-09-01T20:25:47.438Z,100578.94
2022-09-01T20:28:30.572Z,100580.11
2022-09-01T20:31:07.428Z,100585.48
2022-09-01T20:33:44.727Z,100586.77
2022-09-01T20:36:19.977Z,100589.66
2022-09-01T20:39:13.003Z,100589.39
2022-09-01T20:41:49.659Z,100588.00
2022-09-01T20:44:29.020Z,100587.19
2022-09-01T20:46:58.603Z,100583.70
2022-09-01T20:49:27.995Z,100587.39
2022-09-01T20:52:05.309Z,100588.90
2022-09-01T20:54:50.251Z,100590.49
2022-09-01T20:57:29.997Z,100590.15
2022-09-01T21:00:02.732Z,100586.23
2022-09-01T21:02:42.064Z,100589.77
2022-09-01T21:05:29.439Z,100585.41
2022-09-01T21:08:17.136Z,100584.80
2022-09-01T21:10:54.060Z,100580.96
2022-09-01T21:13:27.993Z,100579.52
2022-09-01T21:16:05.282Z,100582.02
2022-09-01T21:18:47.270Z,100582.81
2022-09-01T21:21:29.333Z,100584.87
2022-09-01T21:23:58.639Z,100584.27
2022-09-01T21:26:28.186Z,100584.70
2022-09-01T21:28:59.358Z,100585.45
2022-09-01T21:31:28.791Z,100583.64
2022-09-01T21:33:58.243Z,100587.08
2022-09-01T21:36:27.320Z,100586.14
2022-09-01T21:39:01.821Z,100582.34
2022-09-01T21:41:36.402Z,100584.18
2022-09-01T21:44:05.673Z,100584.24
2022-09-01T21:46:35.238Z,100582.18
2022-09-01T21:49:04.911Z,100583.39
2022-09-01T21:51:34.249Z,100586.60
2022-09-01T21:54:03.250Z,100584.67
2022-09-01T21:56:32.355Z,100585.32
2022-09-01T21:59:01.888Z,100590.81
2022-09-01T22:01:34.486Z,100592.91
2022-09-01T22:04:06.434Z,100589.92
2022-09-01T22:06:37.800Z,100587.05
2022-09-01T22:09:20.682Z,100590.08
2022-09-01T22:11:51.913Z,100587.48
2022-09-01T22:14:21.859Z,100590.14
2022-09-01T22:16:51.112Z,100594.70
2022-09-01T22:19:20.651Z,100597.48
2022-09-01T22:21:50.948Z,100598.13
2022-09-01T22:24:20.961Z,100599.66
2022-09-01T22:26:50.320Z,100602.19
2022-09-01T22:29:19.957Z,100602.63
2022-09-01T22:31:48.975Z,100601.86
2022-09-01T22:34:18.170Z,100602.00
2022-09-01T22:36:49.756Z,100604.14
2022-09-01T22:39:19.951Z,100597.31
2022-09-01T22:41:53.322Z,100600.46
2022-09-01T22:44:22.686Z,100597.27
2022-09-01T22:46:52.273Z,100598.48
2022-09-01T22:49:21.339Z,100606.86
2022-09-01T22:51:50.539Z,100603.77
2022-09-01T22:54:19.521Z,100603.62
2022-09-01T22:56:49.599Z,100604.23
2022-09-01T22:59:19.447Z,100598.41
2022-09-01T23:01:49.088Z,100598.23
2022-09-01T23:04:19.026Z,100600.12
2022-09-01T23:06:51.390Z,100594.88
2022-09-01T23:09:21.551Z,100588.17
2022-09-01T23:11:51.293Z,100586.05
2022-09-01T23:14:20.621Z,100588.00
2022-09-01T23:16:51.231Z,100583.66
2022-09-01T23:19:21.454Z,100580.09
2022-09-01T23:21:53.791Z,100579.05
2022-09-01T23:24:24.275Z,100576.88
2022-09-01T23:26:54.194Z,100568.88
2022-09-01T23:29:56.950Z,100569.48
2022-09-01T23:32:29.639Z,100563.55
2022-09-01T23:34:59.312Z,100563.11
2022-09-01T23:37:29.270Z,100564.66
2022-09-01T23:39:58.372Z,100567.29
2022-09-01T23:42:27.692Z,100569.91
2022-09-01T23:44:58.360Z,100573.95
2022-09-01T23:47:27.970Z,100576.70
2022-09-01T23:50:02.391Z,100575.73
2022-09-01T23:52:34.072Z,100575.79
2022-09-01T23:55:03.550Z,100575.83
2022-09-01T23:57:33.097Z,100575.05
